sensor_id;sensor_type;location;lat;lon;timestamp;P1;durP1;ratioP1;P2;durP2;ratioP2
18732;SDS011;9495;51.210;2.934;2024-02-04T00:01:36;44.77;;;8.63;;
18732;SDS011;9495;51.210;2.934;2024-02-04T00:04:05;35.33;;;7.63;;
18732;SDS011;9495;51.210;2.934;2024-02-04T00:06:35;36.13;;;8.37;;
18732;SDS011;9495;51.210;2.934;2024-02-04T00:09:03;44.37;;;8.33;;
18732;SDS011;9495;51.210;2.934;2024-02-04T00:11:32;44.87;;;9.27;;
18732;SDS011;9495;51.210;2.934;2024-02-04T00:14:01;53.23;;;9.80;;
18732;SDS011;9495;51.210;2.934;2024-02-04T00:16:30;44.40;;;9.37;;
18732;SDS011;9495;51.210;2.934;2024-02-04T00:18:59;40.47;;;7.73;;
18732;SDS011;9495;51.210;2.934;2024-02-04T00:21:27;51.07;;;9.07;;
18732;SDS011;9495;51.210;2.934;2024-02-04T00:23:57;47.20;;;11.20;;
18732;SDS011;9495;51.210;2.934;2024-02-04T00:26:26;45.13;;;9.83;;
18732;SDS011;9495;51.210;2.934;2024-02-04T00:28:54;41.30;;;8.50;;
18732;SDS011;9495;51.210;2.934;2024-02-04T00:31:23;60.83;;;9.80;;
18732;SDS011;9495;51.210;2.934;2024-02-04T00:33:52;52.77;;;9.03;;
18732;SDS011;9495;51.210;2.934;2024-02-04T00:36:20;45.93;;;8.90;;
18732;SDS011;9495;51.210;2.934;2024-02-04T00:38:49;44.47;;;9.50;;
18732;SDS011;9495;51.210;2.934;2024-02-04T00:41:18;46.33;;;10.37;;
18732;SDS011;9495;51.210;2.934;2024-02-04T00:43:47;51.60;;;10.40;;
18732;SDS011;9495;51.210;2.934;2024-02-04T00:46:15;51.87;;;9.77;;
18732;SDS011;9495;51.210;2.934;2024-02-04T00:48:44;59.27;;;9.90;;
18732;SDS011;9495;51.210;2.934;2024-02-04T00:51:13;52.97;;;9.83;;
18732;SDS011;9495;51.210;2.934;2024-02-04T00:53:43;57.20;;;10.50;;
18732;SDS011;9495;51.210;2.934;2024-02-04T00:56:12;59.40;;;10.10;;
18732;SDS011;9495;51.210;2.934;2024-02-04T00:58:42;45.77;;;9.50;;
18732;SDS011;9495;51.210;2.934;2024-02-04T01:01:11;47.30;;;9.90;;
18732;SDS011;9495;51.210;2.934;2024-02-04T01:03:40;51.57;;;9.93;;
18732;SDS011;9495;51.210;2.934;2024-02-04T01:06:08;46.03;;;9.00;;
18732;SDS011;9495;51.210;2.934;2024-02-04T01:08:37;45.80;;;8.70;;
18732;SDS011;9495;51.210;2.934;2024-02-04T01:11:05;50.50;;;8.80;;
18732;SDS011;9495;51.210;2.934;2024-02-04T01:13:34;46.87;;;8.00;;
18732;SDS011;9495;51.210;2.934;2024-02-04T01:16:04;39.93;;;8.60;;
18732;SDS011;9495;51.210;2.934;2024-02-04T01:18:33;34.33;;;7.80;;
18732;SDS011;9495;51.210;2.934;2024-02-04T01:21:01;36.07;;;7.67;;
18732;SDS011;9495;51.210;2.934;2024-02-04T01:23:30;45.53;;;10.03;;
18732;SDS011;9495;51.210;2.934;2024-02-04T01:25:58;49.20;;;8.80;;
18732;SDS011;9495;51.210;2.934;2024-02-04T01:28:27;39.90;;;8.63;;
18732;SDS011;9495;51.210;2.934;2024-02-04T01:30:55;46.07;;;10.27;;
18732;SDS011;9495;51.210;2.934;2024-02-04T01:33:25;53.97;;;8.60;;
18732;SDS011;9495;51.210;2.934;2024-02-04T01:35:54;38.37;;;8.00;;
18732;SDS011;9495;51.210;2.934;2024-02-04T01:38:25;38.73;;;8.53;;
18732;SDS011;9495;51.210;2.934;2024-02-04T01:40:53;38.53;;;8.73;;
18732;SDS011;9495;51.210;2.934;2024-02-04T01:43:21;33.73;;;6.63;;
18732;SDS011;9495;51.210;2.934;2024-02-04T01:45:50;39.00;;;8.40;;
18732;SDS011;9495;51.210;2.934;2024-02-04T01:48:19;40.33;;;7.70;;
18732;SDS011;9495;51.210;2.934;2024-02-04T01:50:50;42.27;;;8.83;;
18732;SDS011;9495;51.210;2.934;2024-02-04T01:53:21;43.50;;;7.70;;
18732;SDS011;9495;51.210;2.934;2024-02-04T01:55:50;40.90;;;8.23;;
18732;SDS011;9495;51.210;2.934;2024-02-04T01:58:21;34.20;;;7.17;;
18732;SDS011;9495;51.210;2.934;2024-02-04T02:00:50;36.20;;;7.83;;
18732;SDS011;9495;51.210;2.934;2024-02-04T02:03:20;41.50;;;7.97;;
18732;SDS011;9495;51.210;2.934;2024-02-04T02:05:51;38.63;;;7.30;;
18732;SDS011;9495;51.210;2.934;2024-02-04T02:08:21;36.90;;;8.13;;
18732;SDS011;9495;51.210;2.934;2024-02-04T02:10:51;54.33;;;9.10;;
18732;SDS011;9495;51.210;2.934;2024-02-04T02:13:27;43.00;;;9.17;;
18732;SDS011;9495;51.210;2.934;2024-02-04T02:16:02;43.03;;;8.37;;
18732;SDS011;9495;51.210;2.934;2024-02-04T02:18:35;46.43;;;7.80;;
18732;SDS011;9495;51.210;2.934;2024-02-04T02:21:16;36.50;;;7.27;;
18732;SDS011;9495;51.210;2.934;2024-02-04T02:23:59;32.63;;;7.70;;
18732;SDS011;9495;51.210;2.934;2024-02-04T02:26:33;32.30;;;7.13;;
18732;SDS011;9495;51.210;2.934;2024-02-04T02:29:04;29.30;;;5.33;;
18732;SDS011;9495;51.210;2.934;2024-02-04T02:31:35;35.97;;;7.47;;
18732;SDS011;9495;51.210;2.934;2024-02-04T02:34:14;30.93;;;6.70;;
18732;SDS011;9495;51.210;2.934;2024-02-04T02:36:49;36.97;;;6.50;;
18732;SDS011;9495;51.210;2.934;2024-02-04T02:39:24;29.53;;;5.70;;
18732;SDS011;9495;51.210;2.934;2024-02-04T02:41:57;31.33;;;6.37;;
18732;SDS011;9495;51.210;2.934;2024-02-04T02:44:28;31.70;;;6.43;;
18732;SDS011;9495;51.210;2.934;2024-02-04T02:46:58;34.20;;;7.60;;
18732;SDS011;9495;51.210;2.934;2024-02-04T02:49:29;32.03;;;6.47;;
18732;SDS011;9495;51.210;2.934;2024-02-04T02:51:58;23.63;;;6.37;;
18732;SDS011;9495;51.210;2.934;2024-02-04T02:54:27;30.33;;;6.33;;
18732;SDS011;9495;51.210;2.934;2024-02-04T02:56:57;33.07;;;6.47;;
18732;SDS011;9495;51.210;2.934;2024-02-04T02:59:25;31.87;;;6.90;;
18732;SDS011;9495;51.210;2.934;2024-02-04T03:01:54;37.07;;;7.00;;
18732;SDS011;9495;51.210;2.934;2024-02-04T03:04:22;32.93;;;6.57;;
18732;SDS011;9495;51.210;2.934;2024-02-04T03:06:51;30.10;;;6.30;;
18732;SDS011;9495;51.210;2.934;2024-02-04T03:09:19;27.07;;;5.70;;
18732;SDS011;9495;51.210;2.934;2024-02-04T03:11:48;23.00;;;5.80;;
18732;SDS011;9495;51.210;2.934;2024-02-04T03:14:19;28.03;;;5.33;;
18732;SDS011;9495;51.210;2.934;2024-02-04T03:16:48;27.87;;;5.63;;
18732;SDS011;9495;51.210;2.934;2024-02-04T03:19:20;22.63;;;5.10;;
18732;SDS011;9495;51.210;2.934;2024-02-04T03:21:49;21.87;;;5.33;;
18732;SDS011;9495;51.210;2.934;2024-02-04T03:24:18;19.00;;;4.60;;
18732;SDS011;9495;51.210;2.934;2024-02-04T03:26:46;31.43;;;5.77;;
18732;SDS011;9495;51.210;2.934;2024-02-04T03:29:15;23.07;;;4.67;;
18732;SDS011;9495;51.210;2.934;2024-02-04T03:31:45;27.90;;;4.93;;
18732;SDS011;9495;51.210;2.934;2024-02-04T03:34:13;20.07;;;4.83;;
18732;SDS011;9495;51.210;2.934;2024-02-04T03:36:42;29.20;;;4.97;;
18732;SDS011;9495;51.210;2.934;2024-02-04T03:39:11;26.70;;;6.57;;
18732;SDS011;9495;51.210;2.934;2024-02-04T03:41:39;25.20;;;5.40;;
18732;SDS011;9495;51.210;2.934;2024-02-04T03:44:08;31.97;;;6.00;;
18732;SDS011;9495;51.210;2.934;2024-02-04T03:46:36;24.53;;;5.00;;
18732;SDS011;9495;51.210;2.934;2024-02-04T03:49:07;29.80;;;5.97;;
18732;SDS011;9495;51.210;2.934;2024-02-04T03:51:36;22.73;;;4.27;;
18732;SDS011;9495;51.210;2.934;2024-02-04T03:54:05;28.50;;;5.27;;
18732;SDS011;9495;51.210;2.934;2024-02-04T03:56:33;27.87;;;5.00;;
18732;SDS011;9495;51.210;2.934;2024-02-04T03:59:02;21.53;;;4.40;;
18732;SDS011;9495;51.210;2.934;2024-02-04T04:01:30;23.20;;;4.37;;
18732;SDS011;9495;51.210;2.934;2024-02-04T04:03:59;16.47;;;4.57;;
18732;SDS011;9495;51.210;2.934;2024-02-04T04:06:29;19.50;;;4.53;;
18732;SDS011;9495;51.210;2.934;2024-02-04T04:08:58;21.13;;;4.03;;
18732;SDS011;9495;51.210;2.934;2024-02-04T04:11:26;20.10;;;4.20;;
18732;SDS011;9495;51.210;2.934;2024-02-04T04:13:55;20.30;;;4.03;;
18732;SDS011;9495;51.210;2.934;2024-02-04T04:16:23;21.70;;;4.13;;
18732;SDS011;9495;51.210;2.934;2024-02-04T04:18:52;16.10;;;4.03;;
18732;SDS011;9495;51.210;2.934;2024-02-04T04:21:21;19.93;;;4.60;;
18732;SDS011;9495;51.210;2.934;2024-02-04T04:23:51;20.00;;;3.97;;
18732;SDS011;9495;51.210;2.934;2024-02-04T04:26:19;25.93;;;4.97;;
18732;SDS011;9495;51.210;2.934;2024-02-04T04:28:48;22.33;;;4.27;;
18732;SDS011;9495;51.210;2.934;2024-02-04T04:31:16;22.57;;;4.47;;
18732;SDS011;9495;51.210;2.934;2024-02-04T04:33:44;24.10;;;5.13;;
18732;SDS011;9495;51.210;2.934;2024-02-04T04:36:13;24.30;;;5.20;;
18732;SDS011;9495;51.210;2.934;2024-02-04T04:38:42;26.87;;;5.67;;
18732;SDS011;9495;51.210;2.934;2024-02-04T04:41:11;22.73;;;5.10;;
18732;SDS011;9495;51.210;2.934;2024-02-04T04:43:40;22.40;;;5.53;;
18732;SDS011;9495;51.210;2.934;2024-02-04T04:46:09;22.90;;;4.50;;
18732;SDS011;9495;51.210;2.934;2024-02-04T04:48:37;19.73;;;4.57;;
18732;SDS011;9495;51.210;2.934;2024-02-04T04:51:07;22.33;;;4.60;;
18732;SDS011;9495;51.210;2.934;2024-02-04T04:53:36;18.33;;;4.43;;
18732;SDS011;9495;51.210;2.934;2024-02-04T04:56:05;19.33;;;4.30;;
18732;SDS011;9495;51.210;2.934;2024-02-04T04:58:36;22.37;;;4.40;;
18732;SDS011;9495;51.210;2.934;2024-02-04T05:01:04;16.70;;;4.27;;
18732;SDS011;9495;51.210;2.934;2024-02-04T05:03:33;20.30;;;4.67;;
18732;SDS011;9495;51.210;2.934;2024-02-04T05:06:02;19.87;;;4.97;;
18732;SDS011;9495;51.210;2.934;2024-02-04T05:08:31;23.57;;;5.03;;
18732;SDS011;9495;51.210;2.934;2024-02-04T05:10:59;28.30;;;5.30;;
18732;SDS011;9495;51.210;2.934;2024-02-04T05:13:28;21.67;;;4.57;;
18732;SDS011;9495;51.210;2.934;2024-02-04T05:15:57;40.27;;;5.53;;
18732;SDS011;9495;51.210;2.934;2024-02-04T05:18:26;29.50;;;5.63;;
18732;SDS011;9495;51.210;2.934;2024-02-04T05:20:54;28.23;;;5.47;;
18732;SDS011;9495;51.210;2.934;2024-02-04T05:23:23;39.93;;;7.37;;
18732;SDS011;9495;51.210;2.934;2024-02-04T05:25:52;35.83;;;6.73;;
18732;SDS011;9495;51.210;2.934;2024-02-04T05:28:20;43.67;;;6.90;;
18732;SDS011;9495;51.210;2.934;2024-02-04T05:30:49;32.23;;;5.17;;
18732;SDS011;9495;51.210;2.934;2024-02-04T05:33:18;37.53;;;5.63;;
18732;SDS011;9495;51.210;2.934;2024-02-04T05:35:47;34.17;;;6.07;;
18732;SDS011;9495;51.210;2.934;2024-02-04T05:38:16;27.17;;;4.77;;
18732;SDS011;9495;51.210;2.934;2024-02-04T05:40:44;32.00;;;5.17;;
18732;SDS011;9495;51.210;2.934;2024-02-04T05:43:12;22.93;;;4.80;;
18732;SDS011;9495;51.210;2.934;2024-02-04T05:45:42;28.33;;;4.47;;
18732;SDS011;9495;51.210;2.934;2024-02-04T05:48:11;23.93;;;4.33;;
18732;SDS011;9495;51.210;2.934;2024-02-04T05:50:41;20.10;;;4.27;;
18732;SDS011;9495;51.210;2.934;2024-02-04T05:53:10;20.10;;;3.63;;
18732;SDS011;9495;51.210;2.934;2024-02-04T05:55:38;27.30;;;4.30;;
18732;SDS011;9495;51.210;2.934;2024-02-04T05:58:07;21.67;;;4.33;;
18732;SDS011;9495;51.210;2.934;2024-02-04T06:00:37;17.40;;;3.00;;
18732;SDS011;9495;51.210;2.934;2024-02-04T06:03:06;17.47;;;3.40;;
18732;SDS011;9495;51.210;2.934;2024-02-04T06:05:34;14.47;;;3.77;;
18732;SDS011;9495;51.210;2.934;2024-02-04T06:08:05;16.43;;;2.97;;
18732;SDS011;9495;51.210;2.934;2024-02-04T06:10:33;20.70;;;4.00;;
18732;SDS011;9495;51.210;2.934;2024-02-04T06:13:02;20.43;;;3.93;;
18732;SDS011;9495;51.210;2.934;2024-02-04T06:15:31;16.77;;;3.53;;
18732;SDS011;9495;51.210;2.934;2024-02-04T06:18:02;12.67;;;2.90;;
18732;SDS011;9495;51.210;2.934;2024-02-04T06:20:30;14.77;;;3.33;;
18732;SDS011;9495;51.210;2.934;2024-02-04T06:22:59;15.53;;;3.73;;
18732;SDS011;9495;51.210;2.934;2024-02-04T06:25:29;13.90;;;3.20;;
18732;SDS011;9495;51.210;2.934;2024-02-04T06:27:58;15.80;;;3.73;;
18732;SDS011;9495;51.210;2.934;2024-02-04T06:30:26;11.20;;;3.10;;
18732;SDS011;9495;51.210;2.934;2024-02-04T06:32:55;16.30;;;3.50;;
18732;SDS011;9495;51.210;2.934;2024-02-04T06:35:25;13.43;;;3.80;;
18732;SDS011;9495;51.210;2.934;2024-02-04T06:37:54;14.80;;;3.47;;
18732;SDS011;9495;51.210;2.934;2024-02-04T06:40:26;14.90;;;3.20;;
18732;SDS011;9495;51.210;2.934;2024-02-04T06:42:56;14.73;;;2.90;;
18732;SDS011;9495;51.210;2.934;2024-02-04T06:45:25;13.30;;;3.27;;
18732;SDS011;9495;51.210;2.934;2024-02-04T06:47:53;12.87;;;2.87;;
18732;SDS011;9495;51.210;2.934;2024-02-04T06:50:22;10.70;;;2.70;;
18732;SDS011;9495;51.210;2.934;2024-02-04T06:52:50;18.37;;;3.10;;
18732;SDS011;9495;51.210;2.934;2024-02-04T06:55:19;14.77;;;2.90;;
18732;SDS011;9495;51.210;2.934;2024-02-04T06:57:48;15.30;;;3.03;;
18732;SDS011;9495;51.210;2.934;2024-02-04T07:00:18;15.30;;;2.70;;
18732;SDS011;9495;51.210;2.934;2024-02-04T07:02:48;10.13;;;2.40;;
18732;SDS011;9495;51.210;2.934;2024-02-04T07:05:17;12.40;;;2.83;;
18732;SDS011;9495;51.210;2.934;2024-02-04T07:07:48;13.30;;;2.57;;
18732;SDS011;9495;51.210;2.934;2024-02-04T07:10:17;14.43;;;2.60;;
18732;SDS011;9495;51.210;2.934;2024-02-04T07:12:46;10.60;;;2.23;;
18732;SDS011;9495;51.210;2.934;2024-02-04T07:15:14;11.27;;;2.20;;
18732;SDS011;9495;51.210;2.934;2024-02-04T07:17:44;14.33;;;2.90;;
18732;SDS011;9495;51.210;2.934;2024-02-04T07:20:12;13.93;;;2.60;;
18732;SDS011;9495;51.210;2.934;2024-02-04T07:22:41;15.10;;;2.50;;
18732;SDS011;9495;51.210;2.934;2024-02-04T07:25:10;12.53;;;2.47;;
18732;SDS011;9495;51.210;2.934;2024-02-04T07:27:39;11.23;;;2.50;;
18732;SDS011;9495;51.210;2.934;2024-02-04T07:30:08;10.33;;;2.60;;
18732;SDS011;9495;51.210;2.934;2024-02-04T07:32:36;10.57;;;2.60;;
18732;SDS011;9495;51.210;2.934;2024-02-04T07:35:07;12.03;;;2.50;;
18732;SDS011;9495;51.210;2.934;2024-02-04T07:37:36;10.87;;;3.00;;
18732;SDS011;9495;51.210;2.934;2024-02-04T07:40:05;9.57;;;2.90;;
18732;SDS011;9495;51.210;2.934;2024-02-04T07:42:34;12.63;;;3.40;;
18732;SDS011;9495;51.210;2.934;2024-02-04T07:45:03;8.80;;;3.07;;
18732;SDS011;9495;51.210;2.934;2024-02-04T07:47:36;13.80;;;3.30;;
18732;SDS011;9495;51.210;2.934;2024-02-04T07:50:05;13.37;;;3.00;;
18732;SDS011;9495;51.210;2.934;2024-02-04T07:52:36;12.43;;;3.23;;
18732;SDS011;9495;51.210;2.934;2024-02-04T07:55:09;14.20;;;2.60;;
18732;SDS011;9495;51.210;2.934;2024-02-04T07:57:37;13.10;;;2.43;;
18732;SDS011;9495;51.210;2.934;2024-02-04T08:00:06;12.33;;;2.40;;
18732;SDS011;9495;51.210;2.934;2024-02-04T08:02:37;10.90;;;2.90;;
18732;SDS011;9495;51.210;2.934;2024-02-04T08:05:07;14.13;;;2.97;;
18732;SDS011;9495;51.210;2.934;2024-02-04T08:07:36;13.00;;;3.30;;
18732;SDS011;9495;51.210;2.934;2024-02-04T08:10:05;18.07;;;3.40;;
18732;SDS011;9495;51.210;2.934;2024-02-04T08:12:34;13.57;;;3.23;;
18732;SDS011;9495;51.210;2.934;2024-02-04T08:15:03;11.93;;;2.83;;
18732;SDS011;9495;51.210;2.934;2024-02-04T08:17:32;11.93;;;3.00;;
18732;SDS011;9495;51.210;2.934;2024-02-04T08:20:01;9.03;;;2.50;;
18732;SDS011;9495;51.210;2.934;2024-02-04T08:22:32;8.87;;;2.47;;
18732;SDS011;9495;51.210;2.934;2024-02-04T08:25:00;10.13;;;2.60;;
18732;SDS011;9495;51.210;2.934;2024-02-04T08:27:29;13.23;;;2.80;;
18732;SDS011;9495;51.210;2.934;2024-02-04T08:29:58;10.37;;;2.67;;
18732;SDS011;9495;51.210;2.934;2024-02-04T08:32:27;11.23;;;2.83;;
18732;SDS011;9495;51.210;2.934;2024-02-04T08:34:55;14.90;;;3.43;;
18732;SDS011;9495;51.210;2.934;2024-02-04T08:37:24;11.37;;;2.60;;
18732;SDS011;9495;51.210;2.934;2024-02-04T08:39:55;15.43;;;3.80;;
18732;SDS011;9495;51.210;2.934;2024-02-04T08:42:25;12.90;;;3.90;;
18732;SDS011;9495;51.210;2.934;2024-02-04T08:44:53;16.53;;;3.83;;
18732;SDS011;9495;51.210;2.934;2024-02-04T08:47:22;14.30;;;3.40;;
18732;SDS011;9495;51.210;2.934;2024-02-04T08:49:50;9.40;;;3.10;;
18732;SDS011;9495;51.210;2.934;2024-02-04T08:52:19;10.60;;;3.23;;
18732;SDS011;9495;51.210;2.934;2024-02-04T08:54:50;9.27;;;3.10;;
18732;SDS011;9495;51.210;2.934;2024-02-04T08:57:19;15.10;;;3.57;;
18732;SDS011;9495;51.210;2.934;2024-02-04T08:59:48;12.48;;;3.60;;
18732;SDS011;9495;51.210;2.934;2024-02-04T09:02:17;15.55;;;3.63;;
18732;SDS011;9495;51.210;2.934;2024-02-04T09:04:46;14.40;;;3.70;;
18732;SDS011;9495;51.210;2.934;2024-02-04T09:07:15;9.10;;;3.03;;
18732;SDS011;9495;51.210;2.934;2024-02-04T09:09:44;11.37;;;3.50;;
18732;SDS011;9495;51.210;2.934;2024-02-04T09:12:12;9.70;;;3.27;;
18732;SDS011;9495;51.210;2.934;2024-02-04T09:14:42;11.13;;;3.37;;
18732;SDS011;9495;51.210;2.934;2024-02-04T09:17:11;14.37;;;3.50;;
18732;SDS011;9495;51.210;2.934;2024-02-04T09:19:40;15.83;;;3.97;;
18732;SDS011;9495;51.210;2.934;2024-02-04T09:22:09;10.53;;;3.23;;
18732;SDS011;9495;51.210;2.934;2024-02-04T09:24:38;15.97;;;3.57;;
18732;SDS011;9495;51.210;2.934;2024-02-04T09:27:06;14.43;;;3.33;;
18732;SDS011;9495;51.210;2.934;2024-02-04T09:29:35;10.63;;;3.33;;
18732;SDS011;9495;51.210;2.934;2024-02-04T09:32:05;13.13;;;3.43;;
18732;SDS011;9495;51.210;2.934;2024-02-04T09:34:34;10.73;;;3.50;;
18732;SDS011;9495;51.210;2.934;2024-02-04T09:37:03;14.97;;;3.50;;
18732;SDS011;9495;51.210;2.934;2024-02-04T09:39:32;11.80;;;3.43;;
18732;SDS011;9495;51.210;2.934;2024-02-04T09:42:00;14.47;;;4.30;;
18732;SDS011;9495;51.210;2.934;2024-02-04T09:44:29;13.30;;;3.90;;
18732;SDS011;9495;51.210;2.934;2024-02-04T09:46:59;17.50;;;3.08;;
18732;SDS011;9495;51.210;2.934;2024-02-04T09:49:29;9.90;;;2.83;;
18732;SDS011;9495;51.210;2.934;2024-02-04T09:51:59;15.67;;;3.67;;
18732;SDS011;9495;51.210;2.934;2024-02-04T09:54:37;18.27;;;3.63;;
18732;SDS011;9495;51.210;2.934;2024-02-04T09:57:09;16.90;;;3.93;;
18732;SDS011;9495;51.210;2.934;2024-02-04T09:59:38;16.27;;;3.97;;
18732;SDS011;9495;51.210;2.934;2024-02-04T10:02:07;15.00;;;3.17;;
18732;SDS011;9495;51.210;2.934;2024-02-04T10:04:37;15.90;;;3.43;;
18732;SDS011;9495;51.210;2.934;2024-02-04T10:07:05;19.00;;;3.53;;
18732;SDS011;9495;51.210;2.934;2024-02-04T10:09:34;14.80;;;2.90;;
18732;SDS011;9495;51.210;2.934;2024-02-04T10:12:03;17.57;;;3.67;;
18732;SDS011;9495;51.210;2.934;2024-02-04T10:14:32;19.67;;;3.70;;
18732;SDS011;9495;51.210;2.934;2024-02-04T10:17:00;10.67;;;2.70;;
18732;SDS011;9495;51.210;2.934;2024-02-04T10:19:29;18.07;;;3.77;;
18732;SDS011;9495;51.210;2.934;2024-02-04T10:22:00;14.40;;;3.07;;
18732;SDS011;9495;51.210;2.934;2024-02-04T10:24:29;13.50;;;2.83;;
18732;SDS011;9495;51.210;2.934;2024-02-04T10:26:58;13.88;;;2.95;;
18732;SDS011;9495;51.210;2.934;2024-02-04T10:29:27;13.30;;;3.07;;
18732;SDS011;9495;51.210;2.934;2024-02-04T10:31:55;14.70;;;2.92;;
18732;SDS011;9495;51.210;2.934;2024-02-04T10:34:25;16.50;;;3.30;;
18732;SDS011;9495;51.210;2.934;2024-02-04T10:36:56;17.87;;;3.30;;
18732;SDS011;9495;51.210;2.934;2024-02-04T10:39:26;12.50;;;3.00;;
18732;SDS011;9495;51.210;2.934;2024-02-04T10:41:55;16.07;;;3.40;;
18732;SDS011;9495;51.210;2.934;2024-02-04T10:44:29;14.50;;;3.63;;
18732;SDS011;9495;51.210;2.934;2024-02-04T10:47:04;15.18;;;3.33;;
18732;SDS011;9495;51.210;2.934;2024-02-04T10:49:37;14.90;;;3.63;;
18732;SDS011;9495;51.210;2.934;2024-02-04T10:52:13;11.67;;;3.00;;
18732;SDS011;9495;51.210;2.934;2024-02-04T10:54:43;19.70;;;4.07;;
18732;SDS011;9495;51.210;2.934;2024-02-04T10:57:13;10.05;;;3.33;;
18732;SDS011;9495;51.210;2.934;2024-02-04T10:59:49;17.30;;;4.10;;
18732;SDS011;9495;51.210;2.934;2024-02-04T11:02:19;15.95;;;4.13;;
18732;SDS011;9495;51.210;2.934;2024-02-04T11:04:48;18.73;;;4.37;;
18732;SDS011;9495;51.210;2.934;2024-02-04T11:07:17;16.67;;;3.90;;
18732;SDS011;9495;51.210;2.934;2024-02-04T11:09:49;19.63;;;3.83;;
18732;SDS011;9495;51.210;2.934;2024-02-04T11:12:18;19.90;;;3.50;;
18732;SDS011;9495;51.210;2.934;2024-02-04T11:14:51;11.67;;;3.20;;
18732;SDS011;9495;51.210;2.934;2024-02-04T11:17:32;17.47;;;4.13;;
18732;SDS011;9495;51.210;2.934;2024-02-04T11:20:25;14.40;;;3.33;;
18732;SDS011;9495;51.210;2.934;2024-02-04T11:23:19;10.88;;;3.28;;
18732;SDS011;9495;51.210;2.934;2024-02-04T11:25:59;15.77;;;3.80;;
18732;SDS011;9495;51.210;2.934;2024-02-04T11:28:28;16.17;;;3.53;;
18732;SDS011;9495;51.210;2.934;2024-02-04T11:30:57;16.50;;;4.37;;
18732;SDS011;9495;51.210;2.934;2024-02-04T11:33:26;15.90;;;4.10;;
18732;SDS011;9495;51.210;2.934;2024-02-04T11:36:00;14.23;;;4.20;;
18732;SDS011;9495;51.210;2.934;2024-02-04T11:38:31;10.43;;;3.23;;
18732;SDS011;9495;51.210;2.934;2024-02-04T11:41:04;18.27;;;4.20;;
18732;SDS011;9495;51.210;2.934;2024-02-04T11:43:33;18.07;;;4.03;;
18732;SDS011;9495;51.210;2.934;2024-02-04T11:46:03;22.67;;;4.83;;
18732;SDS011;9495;51.210;2.934;2024-02-04T11:48:32;18.35;;;3.55;;
18732;SDS011;9495;51.210;2.934;2024-02-04T11:51:03;12.07;;;3.83;;
18732;SDS011;9495;51.210;2.934;2024-02-04T11:53:34;18.40;;;4.37;;
18732;SDS011;9495;51.210;2.934;2024-02-04T11:56:05;13.80;;;3.88;;
18732;SDS011;9495;51.210;2.934;2024-02-04T11:58:35;15.15;;;3.10;;
18732;SDS011;9495;51.210;2.934;2024-02-04T12:01:04;14.90;;;4.35;;
18732;SDS011;9495;51.210;2.934;2024-02-04T12:03:34;17.15;;;3.92;;
18732;SDS011;9495;51.210;2.934;2024-02-04T12:06:03;16.97;;;4.53;;
18732;SDS011;9495;51.210;2.934;2024-02-04T12:08:33;16.15;;;3.58;;
18732;SDS011;9495;51.210;2.934;2024-02-04T12:11:01;18.80;;;4.23;;
18732;SDS011;9495;51.210;2.934;2024-02-04T12:13:31;15.13;;;3.22;;
18732;SDS011;9495;51.210;2.934;2024-02-04T12:16:08;17.83;;;3.63;;
18732;SDS011;9495;51.210;2.934;2024-02-04T12:18:37;16.33;;;3.30;;
18732;SDS011;9495;51.210;2.934;2024-02-04T12:21:16;11.75;;;3.20;;
18732;SDS011;9495;51.210;2.934;2024-02-04T12:23:44;17.63;;;3.88;;
18732;SDS011;9495;51.210;2.934;2024-02-04T12:26:13;10.43;;;2.57;;
18732;SDS011;9495;51.210;2.934;2024-02-04T12:28:43;18.60;;;3.43;;
18732;SDS011;9495;51.210;2.934;2024-02-04T12:31:18;10.87;;;3.50;;
18732;SDS011;9495;51.210;2.934;2024-02-04T12:33:52;16.93;;;4.20;;
18732;SDS011;9495;51.210;2.934;2024-02-04T12:36:25;17.90;;;4.07;;
18732;SDS011;9495;51.210;2.934;2024-02-04T12:38:54;22.63;;;5.70;;
18732;SDS011;9495;51.210;2.934;2024-02-04T12:41:23;20.07;;;4.20;;
18732;SDS011;9495;51.210;2.934;2024-02-04T12:43:54;19.23;;;4.47;;
18732;SDS011;9495;51.210;2.934;2024-02-04T12:46:24;22.53;;;5.53;;
18732;SDS011;9495;51.210;2.934;2024-02-04T12:48:53;24.05;;;5.78;;
18732;SDS011;9495;51.210;2.934;2024-02-04T12:51:24;23.47;;;4.53;;
18732;SDS011;9495;51.210;2.934;2024-02-04T12:54:02;22.33;;;5.47;;
18732;SDS011;9495;51.210;2.934;2024-02-04T12:56:41;16.23;;;4.13;;
18732;SDS011;9495;51.210;2.934;2024-02-04T12:59:22;22.27;;;5.70;;
18732;SDS011;9495;51.210;2.934;2024-02-04T13:01:53;23.90;;;5.32;;
18732;SDS011;9495;51.210;2.934;2024-02-04T13:04:23;26.63;;;4.93;;
18732;SDS011;9495;51.210;2.934;2024-02-04T13:06:51;22.53;;;5.17;;
18732;SDS011;9495;51.210;2.934;2024-02-04T13:09:20;20.75;;;4.38;;
18732;SDS011;9495;51.210;2.934;2024-02-04T13:11:49;23.65;;;5.82;;
18732;SDS011;9495;51.210;2.934;2024-02-04T13:14:20;21.00;;;4.63;;
18732;SDS011;9495;51.210;2.934;2024-02-04T13:16:48;20.67;;;5.23;;
18732;SDS011;9495;51.210;2.934;2024-02-04T13:19:17;24.87;;;4.70;;
18732;SDS011;9495;51.210;2.934;2024-02-04T13:21:46;22.83;;;5.22;;
18732;SDS011;9495;51.210;2.934;2024-02-04T13:24:14;18.97;;;5.00;;
18732;SDS011;9495;51.210;2.934;2024-02-04T13:26:43;14.52;;;4.15;;
18732;SDS011;9495;51.210;2.934;2024-02-04T13:29:11;18.30;;;4.50;;
18732;SDS011;9495;51.210;2.934;2024-02-04T13:31:41;22.15;;;5.15;;
18732;SDS011;9495;51.210;2.934;2024-02-04T13:34:10;19.45;;;4.05;;
18732;SDS011;9495;51.210;2.934;2024-02-04T13:36:39;18.42;;;4.40;;
18732;SDS011;9495;51.210;2.934;2024-02-04T13:39:07;22.90;;;5.13;;
18732;SDS011;9495;51.210;2.934;2024-02-04T13:41:36;17.93;;;4.53;;
18732;SDS011;9495;51.210;2.934;2024-02-04T13:44:04;18.17;;;4.65;;
18732;SDS011;9495;51.210;2.934;2024-02-04T13:46:34;25.88;;;4.78;;
18732;SDS011;9495;51.210;2.934;2024-02-04T13:49:06;19.00;;;4.35;;
18732;SDS011;9495;51.210;2.934;2024-02-04T13:51:35;23.30;;;5.32;;
18732;SDS011;9495;51.210;2.934;2024-02-04T13:54:11;16.58;;;3.70;;
18732;SDS011;9495;51.210;2.934;2024-02-04T13:56:43;20.95;;;4.97;;
18732;SDS011;9495;51.210;2.934;2024-02-04T13:59:12;29.13;;;5.03;;
18732;SDS011;9495;51.210;2.934;2024-02-04T14:01:41;22.98;;;5.70;;
18732;SDS011;9495;51.210;2.934;2024-02-04T14:04:12;22.95;;;5.25;;
18732;SDS011;9495;51.210;2.934;2024-02-04T14:06:40;22.40;;;5.32;;
18732;SDS011;9495;51.210;2.934;2024-02-04T14:09:09;25.17;;;5.20;;
18732;SDS011;9495;51.210;2.934;2024-02-04T14:11:39;26.63;;;4.85;;
18732;SDS011;9495;51.210;2.934;2024-02-04T14:14:08;20.40;;;5.13;;
18732;SDS011;9495;51.210;2.934;2024-02-04T14:16:36;23.85;;;5.10;;
18732;SDS011;9495;51.210;2.934;2024-02-04T14:19:05;21.87;;;4.63;;
18732;SDS011;9495;51.210;2.934;2024-02-04T14:21:35;26.98;;;5.97;;
18732;SDS011;9495;51.210;2.934;2024-02-04T14:24:04;24.02;;;6.40;;
18732;SDS011;9495;51.210;2.934;2024-02-04T14:26:33;20.77;;;5.47;;
18732;SDS011;9495;51.210;2.934;2024-02-04T14:29:01;23.33;;;6.47;;
18732;SDS011;9495;51.210;2.934;2024-02-04T14:31:30;22.27;;;6.38;;
18732;SDS011;9495;51.210;2.934;2024-02-04T14:33:59;27.87;;;6.57;;
18732;SDS011;9495;51.210;2.934;2024-02-04T14:36:28;26.02;;;6.13;;
18732;SDS011;9495;51.210;2.934;2024-02-04T14:38:58;27.33;;;6.70;;
18732;SDS011;9495;51.210;2.934;2024-02-04T14:41:28;28.63;;;6.57;;
18732;SDS011;9495;51.210;2.934;2024-02-04T14:43:56;17.10;;;4.45;;
18732;SDS011;9495;51.210;2.934;2024-02-04T14:46:25;18.83;;;5.18;;
18732;SDS011;9495;51.210;2.934;2024-02-04T14:48:53;18.90;;;5.45;;
18732;SDS011;9495;51.210;2.934;2024-02-04T14:51:22;19.48;;;4.57;;
18732;SDS011;9495;51.210;2.934;2024-02-04T14:53:50;27.98;;;5.47;;
18732;SDS011;9495;51.210;2.934;2024-02-04T14:56:21;18.55;;;5.00;;
18732;SDS011;9495;51.210;2.934;2024-02-04T14:58:50;24.10;;;5.70;;
18732;SDS011;9495;51.210;2.934;2024-02-04T15:01:18;19.80;;;6.20;;
18732;SDS011;9495;51.210;2.934;2024-02-04T15:03:48;22.95;;;5.38;;